sensor_id;sensor_type;location;lat;lon;timestamp;P1;durP1;ratioP1;P2;durP2;ratioP2
9729;SDS011;4904;49.152;11.004;2023-12-29T00:00:13;3.53;;;3.20;;
9729;SDS011;4904;49.152;11.004;2023-12-29T00:02:42;4.40;;;3.78;;
9729;SDS011;4904;49.152;11.004;2023-12-29T00:05:09;4.00;;;3.28;;
9729;SDS011;4904;49.152;11.004;2023-12-29T00:07:36;4.90;;;3.58;;
9729;SDS011;4904;49.152;11.004;2023-12-29T00:10:03;3.92;;;3.58;;
9729;SDS011;4904;49.152;11.004;2023-12-29T00:12:31;4.20;;;3.35;;
9729;SDS011;4904;49.152;11.004;2023-12-29T00:14:58;3.97;;;3.60;;
9729;SDS011;4904;49.152;11.004;2023-12-29T00:17:24;4.15;;;3.75;;
9729;SDS011;4904;49.152;11.004;2023-12-29T00:19:53;4.63;;;3.20;;
9729;SDS011;4904;49.152;11.004;2023-12-29T00:22:19;3.60;;;3.30;;
9729;SDS011;4904;49.152;11.004;2023-12-29T00:24:46;3.88;;;3.47;;
9729;SDS011;4904;49.152;11.004;2023-12-29T00:27:13;3.58;;;3.22;;
9729;SDS011;4904;49.152;11.004;2023-12-29T00:29:40;3.78;;;3.47;;
9729;SDS011;4904;49.152;11.004;2023-12-29T00:32:07;3.88;;;3.47;;
9729;SDS011;4904;49.152;11.004;2023-12-29T00:34:34;4.00;;;3.60;;
9729;SDS011;4904;49.152;11.004;2023-12-29T00:37:03;3.47;;;3.17;;
9729;SDS011;4904;49.152;11.004;2023-12-29T00:39:31;4.28;;;3.88;;
9729;SDS011;4904;49.152;11.004;2023-12-29T00:42:03;5.13;;;4.13;;
9729;SDS011;4904;49.152;11.004;2023-12-29T00:44:31;4.60;;;4.20;;
9729;SDS011;4904;49.152;11.004;2023-12-29T00:46:58;5.05;;;4.22;;
9729;SDS011;4904;49.152;11.004;2023-12-29T00:49:25;5.43;;;4.85;;
9729;SDS011;4904;49.152;11.004;2023-12-29T00:51:52;5.22;;;4.72;;
9729;SDS011;4904;49.152;11.004;2023-12-29T00:54:20;6.60;;;5.03;;
9729;SDS011;4904;49.152;11.004;2023-12-29T00:56:48;5.93;;;5.07;;
9729;SDS011;4904;49.152;11.004;2023-12-29T00:59:15;5.97;;;5.03;;
9729;SDS011;4904;49.152;11.004;2023-12-29T01:01:44;6.05;;;4.75;;
9729;SDS011;4904;49.152;11.004;2023-12-29T01:04:11;7.00;;;5.03;;
9729;SDS011;4904;49.152;11.004;2023-12-29T01:06:38;6.50;;;5.57;;
9729;SDS011;4904;49.152;11.004;2023-12-29T01:09:05;6.30;;;5.70;;
9729;SDS011;4904;49.152;11.004;2023-12-29T01:11:36;6.75;;;5.57;;
9729;SDS011;4904;49.152;11.004;2023-12-29T01:14:03;5.80;;;5.25;;
9729;SDS011;4904;49.152;11.004;2023-12-29T01:16:31;7.93;;;5.55;;
9729;SDS011;4904;49.152;11.004;2023-12-29T01:18:57;6.55;;;5.50;;
9729;SDS011;4904;49.152;11.004;2023-12-29T01:21:24;5.78;;;4.85;;
9729;SDS011;4904;49.152;11.004;2023-12-29T01:23:50;6.85;;;5.40;;
9729;SDS011;4904;49.152;11.004;2023-12-29T01:26:17;7.20;;;5.45;;
9729;SDS011;4904;49.152;11.004;2023-12-29T01:28:45;6.32;;;5.60;;
9729;SDS011;4904;49.152;11.004;2023-12-29T01:31:11;6.10;;;4.93;;
9729;SDS011;4904;49.152;11.004;2023-12-29T01:33:38;6.28;;;5.47;;
9729;SDS011;4904;49.152;11.004;2023-12-29T01:36:05;6.40;;;5.78;;
9729;SDS011;4904;49.152;11.004;2023-12-29T01:38:33;6.70;;;5.60;;
9729;SDS011;4904;49.152;11.004;2023-12-29T01:41:01;7.05;;;5.85;;
9729;SDS011;4904;49.152;11.004;2023-12-29T01:43:29;8.15;;;5.43;;
9729;SDS011;4904;49.152;11.004;2023-12-29T01:45:57;5.75;;;5.18;;
9729;SDS011;4904;49.152;11.004;2023-12-29T01:48:24;5.32;;;4.70;;
9729;SDS011;4904;49.152;11.004;2023-12-29T01:50:52;5.70;;;4.85;;
9729;SDS011;4904;49.152;11.004;2023-12-29T01:53:19;6.30;;;5.22;;
9729;SDS011;4904;49.152;11.004;2023-12-29T01:55:47;5.22;;;4.63;;
9729;SDS011;4904;49.152;11.004;2023-12-29T01:58:15;5.35;;;4.85;;
9729;SDS011;4904;49.152;11.004;2023-12-29T02:00:42;5.28;;;4.78;;
9729;SDS011;4904;49.152;11.004;2023-12-29T02:03:11;5.13;;;4.50;;
9729;SDS011;4904;49.152;11.004;2023-12-29T02:05:38;5.40;;;4.90;;
9729;SDS011;4904;49.152;11.004;2023-12-29T02:08:06;5.10;;;4.60;;
9729;SDS011;4904;49.152;11.004;2023-12-29T02:10:35;4.97;;;4.47;;
9729;SDS011;4904;49.152;11.004;2023-12-29T02:13:02;5.07;;;4.53;;
9729;SDS011;4904;49.152;11.004;2023-12-29T02:15:29;4.90;;;4.45;;
9729;SDS011;4904;49.152;11.004;2023-12-29T02:17:57;5.30;;;4.70;;
9729;SDS011;4904;49.152;11.004;2023-12-29T02:20:29;7.22;;;5.90;;
9729;SDS011;4904;49.152;11.004;2023-12-29T02:22:56;6.85;;;5.15;;
9729;SDS011;4904;49.152;11.004;2023-12-29T02:25:23;5.10;;;4.60;;
9729;SDS011;4904;49.152;11.004;2023-12-29T02:27:51;5.72;;;4.63;;
9729;SDS011;4904;49.152;11.004;2023-12-29T02:30:25;6.03;;;4.72;;
9729;SDS011;4904;49.152;11.004;2023-12-29T02:32:58;5.63;;;4.40;;
9729;SDS011;4904;49.152;11.004;2023-12-29T02:35:28;5.55;;;4.35;;
9729;SDS011;4904;49.152;11.004;2023-12-29T02:37:58;6.50;;;4.78;;
9729;SDS011;4904;49.152;11.004;2023-12-29T02:40:26;5.97;;;4.40;;
9729;SDS011;4904;49.152;11.004;2023-12-29T02:42:53;5.20;;;4.70;;
9729;SDS011;4904;49.152;11.004;2023-12-29T02:45:20;4.90;;;4.47;;
9729;SDS011;4904;49.152;11.004;2023-12-29T02:47:47;4.45;;;4.05;;
9729;SDS011;4904;49.152;11.004;2023-12-29T02:50:15;4.63;;;4.20;;
9729;SDS011;4904;49.152;11.004;2023-12-29T02:52:42;4.65;;;4.25;;
9729;SDS011;4904;49.152;11.004;2023-12-29T02:55:09;5.57;;;4.65;;
9729;SDS011;4904;49.152;11.004;2023-12-29T02:57:37;4.90;;;4.13;;
9729;SDS011;4904;49.152;11.004;2023-12-29T03:00:05;5.18;;;4.55;;
9729;SDS011;4904;49.152;11.004;2023-12-29T03:02:32;6.28;;;4.57;;
9729;SDS011;4904;49.152;11.004;2023-12-29T03:04:59;5.70;;;3.92;;
9729;SDS011;4904;49.152;11.004;2023-12-29T03:07:26;5.88;;;4.80;;
9729;SDS011;4904;49.152;11.004;2023-12-29T03:09:53;5.35;;;4.85;;
9729;SDS011;4904;49.152;11.004;2023-12-29T03:12:20;5.25;;;4.75;;
9729;SDS011;4904;49.152;11.004;2023-12-29T03:14:48;5.35;;;4.45;;
9729;SDS011;4904;49.152;11.004;2023-12-29T03:17:15;5.40;;;4.38;;
9729;SDS011;4904;49.152;11.004;2023-12-29T03:19:42;5.57;;;4.63;;
9729;SDS011;4904;49.152;11.004;2023-12-29T03:22:09;5.07;;;4.60;;
9729;SDS011;4904;49.152;11.004;2023-12-29T03:24:36;6.20;;;4.78;;
9729;SDS011;4904;49.152;11.004;2023-12-29T03:27:07;4.85;;;4.45;;
9729;SDS011;4904;49.152;11.004;2023-12-29T03:29:34;5.20;;;4.70;;
9729;SDS011;4904;49.152;11.004;2023-12-29T03:32:02;6.93;;;4.75;;
9729;SDS011;4904;49.152;11.004;2023-12-29T03:34:29;5.30;;;4.82;;
9729;SDS011;4904;49.152;11.004;2023-12-29T03:36:56;6.22;;;4.90;;
9729;SDS011;4904;49.152;11.004;2023-12-29T03:39:23;5.28;;;4.40;;
9729;SDS011;4904;49.152;11.004;2023-12-29T03:41:50;5.50;;;4.93;;
9729;SDS011;4904;49.152;11.004;2023-12-29T03:44:17;6.00;;;5.03;;
9729;SDS011;4904;49.152;11.004;2023-12-29T03:46:43;5.65;;;5.15;;
9729;SDS011;4904;49.152;11.004;2023-12-29T03:49:12;5.80;;;5.20;;
9729;SDS011;4904;49.152;11.004;2023-12-29T03:51:39;7.22;;;5.70;;
9729;SDS011;4904;49.152;11.004;2023-12-29T03:54:05;6.00;;;5.13;;
9729;SDS011;4904;49.152;11.004;2023-12-29T03:56:32;6.28;;;5.68;;
9729;SDS011;4904;49.152;11.004;2023-12-29T03:58:59;5.70;;;5.13;;
9729;SDS011;4904;49.152;11.004;2023-12-29T04:01:26;6.18;;;5.35;;
9729;SDS011;4904;49.152;11.004;2023-12-29T04:03:53;6.30;;;5.70;;
9729;SDS011;4904;49.152;11.004;2023-12-29T04:06:22;7.25;;;5.63;;
9729;SDS011;4904;49.152;11.004;2023-12-29T04:08:49;6.28;;;5.68;;
9729;SDS011;4904;49.152;11.004;2023-12-29T04:11:15;5.53;;;5.00;;
9729;SDS011;4904;49.152;11.004;2023-12-29T04:13:42;6.43;;;5.40;;
9729;SDS011;4904;49.152;11.004;2023-12-29T04:16:09;5.82;;;5.32;;
9729;SDS011;4904;49.152;11.004;2023-12-29T04:18:36;6.95;;;5.65;;
9729;SDS011;4904;49.152;11.004;2023-12-29T04:21:03;6.30;;;5.05;;
9729;SDS011;4904;49.152;11.004;2023-12-29T04:23:31;5.90;;;5.28;;
9729;SDS011;4904;49.152;11.004;2023-12-29T04:25:58;6.07;;;5.10;;
9729;SDS011;4904;49.152;11.004;2023-12-29T04:28:25;5.65;;;5.05;;
9729;SDS011;4904;49.152;11.004;2023-12-29T04:30:52;5.97;;;5.35;;
9729;SDS011;4904;49.152;11.004;2023-12-29T04:33:19;5.38;;;4.88;;
9729;SDS011;4904;49.152;11.004;2023-12-29T04:35:46;5.85;;;5.20;;
9729;SDS011;4904;49.152;11.004;2023-12-29T04:38:13;6.45;;;4.72;;
9729;SDS011;4904;49.152;11.004;2023-12-29T04:40:43;5.65;;;4.88;;
9729;SDS011;4904;49.152;11.004;2023-12-29T04:43:10;5.80;;;5.03;;
9729;SDS011;4904;49.152;11.004;2023-12-29T04:45:37;6.15;;;5.47;;
9729;SDS011;4904;49.152;11.004;2023-12-29T04:48:04;5.63;;;4.97;;
9729;SDS011;4904;49.152;11.004;2023-12-29T04:50:31;5.32;;;4.82;;
9729;SDS011;4904;49.152;11.004;2023-12-29T04:52:58;5.35;;;4.80;;
9729;SDS011;4904;49.152;11.004;2023-12-29T04:55:25;5.60;;;5.10;;
9729;SDS011;4904;49.152;11.004;2023-12-29T04:57:53;6.65;;;4.93;;
9729;SDS011;4904;49.152;11.004;2023-12-29T05:00:20;5.78;;;5.05;;
9729;SDS011;4904;49.152;11.004;2023-12-29T05:02:47;5.55;;;4.97;;
9729;SDS011;4904;49.152;11.004;2023-12-29T05:05:14;6.15;;;4.97;;
9729;SDS011;4904;49.152;11.004;2023-12-29T05:07:40;5.97;;;5.35;;
9729;SDS011;4904;49.152;11.004;2023-12-29T05:10:08;6.20;;;5.38;;
9729;SDS011;4904;49.152;11.004;2023-12-29T05:12:35;5.00;;;4.47;;
9729;SDS011;4904;49.152;11.004;2023-12-29T05:15:03;5.30;;;4.78;;
9729;SDS011;4904;49.152;11.004;2023-12-29T05:17:31;6.25;;;5.38;;
9729;SDS011;4904;49.152;11.004;2023-12-29T05:19:58;6.57;;;5.05;;
9729;SDS011;4904;49.152;11.004;2023-12-29T05:22:25;6.45;;;4.93;;
9729;SDS011;4904;49.152;11.004;2023-12-29T05:24:52;5.43;;;4.93;;
9729;SDS011;4904;49.152;11.004;2023-12-29T05:27:22;5.90;;;4.95;;
9729;SDS011;4904;49.152;11.004;2023-12-29T05:29:49;6.07;;;4.60;;
9729;SDS011;4904;49.152;11.004;2023-12-29T05:32:17;5.72;;;5.07;;
9729;SDS011;4904;49.152;11.004;2023-12-29T05:34:44;5.53;;;4.90;;
9729;SDS011;4904;49.152;11.004;2023-12-29T05:37:11;5.22;;;4.72;;
9729;SDS011;4904;49.152;11.004;2023-12-29T05:39:41;5.30;;;4.78;;
9729;SDS011;4904;49.152;11.004;2023-12-29T05:42:08;6.28;;;4.80;;
9729;SDS011;4904;49.152;11.004;2023-12-29T05:44:35;5.07;;;4.30;;
9729;SDS011;4904;49.152;11.004;2023-12-29T05:47:02;5.68;;;4.72;;
9729;SDS011;4904;49.152;11.004;2023-12-29T05:49:31;6.53;;;4.70;;
9729;SDS011;4904;49.152;11.004;2023-12-29T05:52:03;4.88;;;4.35;;
9729;SDS011;4904;49.152;11.004;2023-12-29T05:54:30;4.88;;;4.45;;
9729;SDS011;4904;49.152;11.004;2023-12-29T05:56:57;4.90;;;4.40;;
9729;SDS011;4904;49.152;11.004;2023-12-29T05:59:24;7.45;;;5.13;;
9729;SDS011;4904;49.152;11.004;2023-12-29T06:01:51;5.07;;;4.43;;
9729;SDS011;4904;49.152;11.004;2023-12-29T06:04:18;4.57;;;4.18;;
9729;SDS011;4904;49.152;11.004;2023-12-29T06:06:47;5.72;;;4.93;;
9729;SDS011;4904;49.152;11.004;2023-12-29T06:09:14;5.07;;;4.55;;
9729;SDS011;4904;49.152;11.004;2023-12-29T06:11:41;4.72;;;4.32;;
9729;SDS011;4904;49.152;11.004;2023-12-29T06:14:08;4.93;;;4.43;;
9729;SDS011;4904;49.152;11.004;2023-12-29T06:16:35;5.88;;;4.05;;
9729;SDS011;4904;49.152;11.004;2023-12-29T06:19:02;4.88;;;4.18;;
9729;SDS011;4904;49.152;11.004;2023-12-29T06:21:29;4.53;;;3.90;;
9729;SDS011;4904;49.152;11.004;2023-12-29T06:23:57;4.25;;;3.88;;
9729;SDS011;4904;49.152;11.004;2023-12-29T06:26:24;4.68;;;4.20;;
9729;SDS011;4904;49.152;11.004;2023-12-29T06:28:51;4.03;;;3.63;;
9729;SDS011;4904;49.152;11.004;2023-12-29T06:31:18;4.78;;;3.80;;
9729;SDS011;4904;49.152;11.004;2023-12-29T06:33:45;4.57;;;3.88;;
9729;SDS011;4904;49.152;11.004;2023-12-29T06:36:12;4.25;;;3.85;;
9729;SDS011;4904;49.152;11.004;2023-12-29T06:38:39;4.43;;;4.03;;
9729;SDS011;4904;49.152;11.004;2023-12-29T06:41:07;5.88;;;4.57;;
9729;SDS011;4904;49.152;11.004;2023-12-29T06:43:34;5.05;;;4.05;;
9729;SDS011;4904;49.152;11.004;2023-12-29T06:46:01;4.53;;;4.10;;
9729;SDS011;4904;49.152;11.004;2023-12-29T06:48:29;6.05;;;4.47;;
9729;SDS011;4904;49.152;11.004;2023-12-29T06:50:56;5.22;;;4.68;;
9729;SDS011;4904;49.152;11.004;2023-12-29T06:53:23;4.70;;;4.30;;
9729;SDS011;4904;49.152;11.004;2023-12-29T06:55:50;6.38;;;4.82;;
9729;SDS011;4904;49.152;11.004;2023-12-29T06:58:18;5.13;;;4.00;;
9729;SDS011;4904;49.152;11.004;2023-12-29T07:00:45;5.80;;;4.50;;
9729;SDS011;4904;49.152;11.004;2023-12-29T07:03:13;5.20;;;4.70;;
9729;SDS011;4904;49.152;11.004;2023-12-29T07:05:40;4.63;;;4.22;;
9729;SDS011;4904;49.152;11.004;2023-12-29T07:08:07;4.63;;;4.22;;
9729;SDS011;4904;49.152;11.004;2023-12-29T07:10:34;5.18;;;4.63;;
9729;SDS011;4904;49.152;11.004;2023-12-29T07:13:01;5.38;;;4.88;;
9729;SDS011;4904;49.152;11.004;2023-12-29T07:15:29;5.10;;;4.63;;
9729;SDS011;4904;49.152;11.004;2023-12-29T07:17:56;5.75;;;5.03;;
9729;SDS011;4904;49.152;11.004;2023-12-29T07:20:23;6.22;;;5.63;;
9729;SDS011;4904;49.152;11.004;2023-12-29T07:22:50;11.63;;;5.30;;
9729;SDS011;4904;49.152;11.004;2023-12-29T07:25:17;5.22;;;4.63;;
9729;SDS011;4904;49.152;11.004;2023-12-29T07:27:44;5.88;;;5.22;;
9729;SDS011;4904;49.152;11.004;2023-12-29T07:30:11;6.07;;;5.18;;
9729;SDS011;4904;49.152;11.004;2023-12-29T07:32:41;5.25;;;4.75;;
9729;SDS011;4904;49.152;11.004;2023-12-29T07:35:08;6.65;;;5.50;;
9729;SDS011;4904;49.152;11.004;2023-12-29T07:37:35;6.35;;;5.40;;
9729;SDS011;4904;49.152;11.004;2023-12-29T07:40:02;5.82;;;5.10;;
9729;SDS011;4904;49.152;11.004;2023-12-29T07:42:30;5.60;;;5.03;;
9729;SDS011;4904;49.152;11.004;2023-12-29T07:44:57;5.72;;;5.22;;
9729;SDS011;4904;49.152;11.004;2023-12-29T07:47:24;5.30;;;4.75;;
9729;SDS011;4904;49.152;11.004;2023-12-29T07:49:53;5.80;;;5.13;;
9729;SDS011;4904;49.152;11.004;2023-12-29T07:52:20;5.10;;;4.60;;
9729;SDS011;4904;49.152;11.004;2023-12-29T07:54:47;5.80;;;5.22;;
9729;SDS011;4904;49.152;11.004;2023-12-29T07:57:15;5.40;;;4.82;;
9729;SDS011;4904;49.152;11.004;2023-12-29T07:59:42;5.50;;;4.93;;
9729;SDS011;4904;49.152;11.004;2023-12-29T08:02:08;5.38;;;4.88;;
9729;SDS011;4904;49.152;11.004;2023-12-29T08:04:35;5.60;;;4.53;;
9729;SDS011;4904;49.152;11.004;2023-12-29T08:07:04;5.35;;;4.85;;
9729;SDS011;4904;49.152;11.004;2023-12-29T08:09:32;5.25;;;4.75;;
9729;SDS011;4904;49.152;11.004;2023-12-29T08:11:58;6.07;;;5.28;;
9729;SDS011;4904;49.152;11.004;2023-12-29T08:14:25;5.15;;;4.68;;
9729;SDS011;4904;49.152;11.004;2023-12-29T08:16:53;6.13;;;4.13;;
9729;SDS011;4904;49.152;11.004;2023-12-29T08:19:22;5.82;;;5.22;;
9729;SDS011;4904;49.152;11.004;2023-12-29T08:21:48;5.63;;;4.97;;
9729;SDS011;4904;49.152;11.004;2023-12-29T08:24:18;6.47;;;5.00;;
9729;SDS011;4904;49.152;11.004;2023-12-29T08:26:45;5.45;;;4.75;;
9729;SDS011;4904;49.152;11.004;2023-12-29T08:29:14;5.78;;;4.75;;
9729;SDS011;4904;49.152;11.004;2023-12-29T08:31:41;4.60;;;4.20;;
9729;SDS011;4904;49.152;11.004;2023-12-29T08:34:08;6.88;;;4.75;;
9729;SDS011;4904;49.152;11.004;2023-12-29T08:36:35;5.88;;;4.68;;
9729;SDS011;4904;49.152;11.004;2023-12-29T08:39:02;5.97;;;4.82;;
9729;SDS011;4904;49.152;11.004;2023-12-29T08:41:31;5.25;;;4.75;;
9729;SDS011;4904;49.152;11.004;2023-12-29T08:43:57;4.95;;;4.53;;
9729;SDS011;4904;49.152;11.004;2023-12-29T08:46:24;5.88;;;4.63;;
9729;SDS011;4904;49.152;11.004;2023-12-29T08:48:51;4.85;;;4.35;;
9729;SDS011;4904;49.152;11.004;2023-12-29T08:51:19;5.10;;;4.57;;
9729;SDS011;4904;49.152;11.004;2023-12-29T08:53:47;4.75;;;4.20;;
9729;SDS011;4904;49.152;11.004;2023-12-29T08:56:14;4.88;;;4.22;;
9729;SDS011;4904;49.152;11.004;2023-12-29T08:58:43;5.05;;;4.18;;
9729;SDS011;4904;49.152;11.004;2023-12-29T09:01:12;4.45;;;4.05;;
9729;SDS011;4904;49.152;11.004;2023-12-29T09:03:38;4.30;;;3.92;;
9729;SDS011;4904;49.152;11.004;2023-12-29T09:06:05;4.60;;;4.10;;
9729;SDS011;4904;49.152;11.004;2023-12-29T09:08:33;4.90;;;3.92;;
9729;SDS011;4904;49.152;11.004;2023-12-29T09:11:00;6.97;;;3.95;;
9729;SDS011;4904;49.152;11.004;2023-12-29T09:13:27;4.07;;;3.67;;
9729;SDS011;4904;49.152;11.004;2023-12-29T09:15:56;5.10;;;4.00;;
9729;SDS011;4904;49.152;11.004;2023-12-29T09:18:22;4.68;;;3.80;;
9729;SDS011;4904;49.152;11.004;2023-12-29T09:20:49;3.50;;;3.20;;
9729;SDS011;4904;49.152;11.004;2023-12-29T09:23:16;3.67;;;3.38;;
9729;SDS011;4904;49.152;11.004;2023-12-29T09:25:43;3.55;;;3.25;;
9729;SDS011;4904;49.152;11.004;2023-12-29T09:28:10;3.47;;;3.17;;
9729;SDS011;4904;49.152;11.004;2023-12-29T09:30:37;3.75;;;3.45;;
9729;SDS011;4904;49.152;11.004;2023-12-29T09:33:06;3.63;;;3.33;;
9729;SDS011;4904;49.152;11.004;2023-12-29T09:35:35;3.90;;;3.42;;
9729;SDS011;4904;49.152;11.004;2023-12-29T09:38:02;4.85;;;3.97;;
9729;SDS011;4904;49.152;11.004;2023-12-29T09:40:29;4.40;;;3.38;;
9729;SDS011;4904;49.152;11.004;2023-12-29T09:42:56;3.70;;;3.40;;
9729;SDS011;4904;49.152;11.004;2023-12-29T09:45:23;4.47;;;2.80;;
9729;SDS011;4904;49.152;11.004;2023-12-29T09:47:52;3.30;;;3.00;;
9729;SDS011;4904;49.152;11.004;2023-12-29T09:50:21;3.80;;;3.40;;
9729;SDS011;4904;49.152;11.004;2023-12-29T09:52:48;3.13;;;2.72;;
9729;SDS011;4904;49.152;11.004;2023-12-29T09:55:19;3.67;;;2.88;;
9729;SDS011;4904;49.152;11.004;2023-12-29T09:57:50;3.35;;;3.05;;
9729;SDS011;4904;49.152;11.004;2023-12-29T10:00:18;3.17;;;2.85;;
9729;SDS011;4904;49.152;11.004;2023-12-29T10:02:46;3.20;;;2.90;;
9729;SDS011;4904;49.152;11.004;2023-12-29T10:05:17;3.88;;;2.75;;
9729;SDS011;4904;49.152;11.004;2023-12-29T10:07:45;3.35;;;3.05;;
9729;SDS011;4904;49.152;11.004;2023-12-29T10:10:14;2.95;;;2.72;;
9729;SDS011;4904;49.152;11.004;2023-12-29T10:12:42;3.22;;;2.95;;
9729;SDS011;4904;49.152;11.004;2023-12-29T10:15:12;4.10;;;2.95;;
9729;SDS011;4904;49.152;11.004;2023-12-29T10:17:43;4.30;;;2.75;;
9729;SDS011;4904;49.152;11.004;2023-12-29T10:20:41;4.63;;;3.40;;
9729;SDS011;4904;49.152;11.004;2023-12-29T10:23:16;3.45;;;3.15;;
9729;SDS011;4904;49.152;11.004;2023-12-29T10:25:45;5.75;;;4.28;;
9729;SDS011;4904;49.152;11.004;2023-12-29T10:28:13;5.10;;;2.92;;
9729;SDS011;4904;49.152;11.004;2023-12-29T10:30:42;3.30;;;3.00;;
9729;SDS011;4904;49.152;11.004;2023-12-29T10:33:09;3.10;;;2.80;;
9729;SDS011;4904;49.152;11.004;2023-12-29T10:35:36;3.25;;;2.95;;
9729;SDS011;4904;49.152;11.004;2023-12-29T10:38:10;3.60;;;3.30;;
9729;SDS011;4904;49.152;11.004;2023-12-29T10:40:39;3.20;;;2.90;;
9729;SDS011;4904;49.152;11.004;2023-12-29T10:43:07;3.15;;;2.90;;
9729;SDS011;4904;49.152;11.004;2023-12-29T10:45:35;4.55;;;3.35;;
9729;SDS011;4904;49.152;11.004;2023-12-29T10:48:02;3.47;;;3.17;;
9729;SDS011;4904;49.152;11.004;2023-12-29T10:50:29;3.70;;;3.40;;
9729;SDS011;4904;49.152;11.004;2023-12-29T10:53:12;5.32;;;3.60;;
9729;SDS011;4904;49.152;11.004;2023-12-29T10:55:40;3.45;;;3.10;;
9729;SDS011;4904;49.152;11.004;2023-12-29T10:58:07;3.95;;;3.08;;
9729;SDS011;4904;49.152;11.004;2023-12-29T11:00:34;3.47;;;3.08;;
9729;SDS011;4904;49.152;11.004;2023-12-29T11:03:00;3.95;;;3.08;;
9729;SDS011;4904;49.152;11.004;2023-12-29T11:05:28;3.33;;;3.05;;
9729;SDS011;4904;49.152;11.004;2023-12-29T11:07:55;3.42;;;3.00;;
9729;SDS011;4904;49.152;11.004;2023-12-29T11:10:24;3.95;;;3.20;;
9729;SDS011;4904;49.152;11.004;2023-12-29T11:12:53;2.75;;;2.55;;
9729;SDS011;4904;49.152;11.004;2023-12-29T11:15:21;5.13;;;3.22;;
9729;SDS011;4904;49.152;11.004;2023-12-29T11:17:50;4.00;;;3.35;;
9729;SDS011;4904;49.152;11.004;2023-12-29T11:20:19;3.75;;;3.05;;
9729;SDS011;4904;49.152;11.004;2023-12-29T11:22:46;3.42;;;2.95;;
9729;SDS011;4904;49.152;11.004;2023-12-29T11:25:13;3.42;;;3.13;;
9729;SDS011;4904;49.152;11.004;2023-12-29T11:27:40;4.07;;;3.65;;
9729;SDS011;4904;49.152;11.004;2023-12-29T11:30:11;3.22;;;2.92;;
9729;SDS011;4904;49.152;11.004;2023-12-29T11:32:41;4.03;;;3.20;;
9729;SDS011;4904;49.152;11.004;2023-12-29T11:35:13;3.50;;;3.20;;
9729;SDS011;4904;49.152;11.004;2023-12-29T11:37:55;3.17;;;2.90;;
9729;SDS011;4904;49.152;11.004;2023-12-29T11:40:41;4.15;;;2.83;;
9729;SDS011;4904;49.152;11.004;2023-12-29T11:43:13;4.13;;;2.90;;
9729;SDS011;4904;49.152;11.004;2023-12-29T11:45:44;4.65;;;2.95;;
9729;SDS011;4904;49.152;11.004;2023-12-29T11:48:11;2.92;;;2.63;;
9729;SDS011;4904;49.152;11.004;2023-12-29T11:50:38;3.92;;;2.97;;
9729;SDS011;4904;49.152;11.004;2023-12-29T11:53:06;3.58;;;2.92;;
9729;SDS011;4904;49.152;11.004;2023-12-29T11:55:34;4.25;;;3.15;;
9729;SDS011;4904;49.152;11.004;2023-12-29T11:58:02;3.53;;;3.22;;
9729;SDS011;4904;49.152;11.004;2023-12-29T12:00:45;3.10;;;2.85;;
9729;SDS011;4904;49.152;11.004;2023-12-29T12:03:16;3.00;;;2.80;;
9729;SDS011;4904;49.152;11.004;2023-12-29T12:05:50;3.35;;;3.15;;
9729;SDS011;4904;49.152;11.004;2023-12-29T12:08:29;3.17;;;2.97;;
9729;SDS011;4904;49.152;11.004;2023-12-29T12:10:58;3.25;;;2.95;;
9729;SDS011;4904;49.152;11.004;2023-12-29T12:14:02;4.13;;;3.45;;
9729;SDS011;4904;49.152;11.004;2023-12-29T12:16:50;3.25;;;3.05;;
9729;SDS011;4904;49.152;11.004;2023-12-29T12:19:19;3.67;;;3.38;;
9729;SDS011;4904;49.152;11.004;2023-12-29T12:21:49;3.45;;;3.08;;
9729;SDS011;4904;49.152;11.004;2023-12-29T12:24:19;3.55;;;3.25;;
9729;SDS011;4904;49.152;11.004;2023-12-29T12:26:46;3.22;;;2.90;;
9729;SDS011;4904;49.152;11.004;2023-12-29T12:29:14;3.45;;;2.92;;
9729;SDS011;4904;49.152;11.004;2023-12-29T12:31:52;3.60;;;3.30;;
9729;SDS011;4904;49.152;11.004;2023-12-29T12:34:20;3.60;;;3.30;;
9729;SDS011;4904;49.152;11.004;2023-12-29T12:36:50;3.50;;;3.20;;
9729;SDS011;4904;49.152;11.004;2023-12-29T12:39:18;3.40;;;3.10;;
9729;SDS011;4904;49.152;11.004;2023-12-29T12:41:45;3.50;;;3.20;;
9729;SDS011;4904;49.152;11.004;2023-12-29T12:44:13;2.90;;;2.70;;
9729;SDS011;4904;49.152;11.004;2023-12-29T12:46:41;3.50;;;3.00;;
9729;SDS011;4904;49.152;11.004;2023-12-29T12:49:17;4.00;;;3.03;;
9729;SDS011;4904;49.152;11.004;2023-12-29T12:51:44;5.07;;;2.78;;
9729;SDS011;4904;49.152;11.004;2023-12-29T12:54:12;3.00;;;2.80;;
9729;SDS011;4904;49.152;11.004;2023-12-29T12:56:45;3.38;;;3.08;;
9729;SDS011;4904;49.152;11.004;2023-12-29T12:59:12;3.47;;;2.75;;
9729;SDS011;4904;49.152;11.004;2023-12-29T13:01:41;2.90;;;2.55;;
9729;SDS011;4904;49.152;11.004;2023-12-29T13:04:09;3.85;;;2.70;;
9729;SDS011;4904;49.152;11.004;2023-12-29T13:06:40;2.58;;;2.38;;
9729;SDS011;4904;49.152;11.004;2023-12-29T13:09:09;2.60;;;2.40;;
9729;SDS011;4904;49.152;11.004;2023-12-29T13:11:37;2.55;;;2.35;;
9729;SDS011;4904;49.152;11.004;2023-12-29T13:14:05;2.95;;;2.55;;
9729;SDS011;4904;49.152;11.004;2023-12-29T13:16:33;2.33;;;2.13;;
9729;SDS011;4904;49.152;11.004;2023-12-29T13:21:46;2.20;;;2.00;;
9729;SDS011;4904;49.152;11.004;2023-12-29T13:24:14;2.42;;;2.20;;
9729;SDS011;4904;49.152;11.004;2023-12-29T13:26:42;2.28;;;2.17;;
9729;SDS011;4904;49.152;11.004;2023-12-29T13:29:11;1.80;;;1.70;;
9729;SDS011;4904;49.152;11.004;2023-12-29T13:31:40;1.52;;;1.42;;
9729;SDS011;4904;49.152;11.004;2023-12-29T13:34:11;1.45;;;1.35;;
9729;SDS011;4904;49.152;11.004;2023-12-29T13:36:42;1.52;;;1.42;;
9729;SDS011;4904;49.152;11.004;2023-12-29T13:39:15;1.50;;;1.40;;
9729;SDS011;4904;49.152;11.004;2023-12-29T13:41:50;1.35;;;1.25;;
9729;SDS011;4904;49.152;11.004;2023-12-29T13:44:17;1.40;;;1.30;;
9729;SDS011;4904;49.152;11.004;2023-12-29T13:46:46;1.08;;;1.08;;
9729;SDS011;4904;49.152;11.004;2023-12-29T13:49:14;2.05;;;1.30;;
9729;SDS011;4904;49.152;11.004;2023-12-29T13:51:42;1.23;;;1.13;;
9729;SDS011;4904;49.152;11.004;2023-12-29T13:54:09;1.33;;;1.23;;
9729;SDS011;4904;49.152;11.004;2023-12-29T13:56:37;1.42;;;1.33;;
9729;SDS011;4904;49.152;11.004;2023-12-29T13:59:05;1.63;;;1.45;;
9729;SDS011;4904;49.152;11.004;2023-12-29T14:01:35;1.20;;;1.20;;
9729;SDS011;4904;49.152;11.004;2023-12-29T14:04:03;1.17;;;1.10;;
9729;SDS011;4904;49.152;11.004;2023-12-29T14:06:37;2.15;;;1.10;;
9729;SDS011;4904;49.152;11.004;2023-12-29T14:09:07;1.50;;;1.40;;
9729;SDS011;4904;49.152;11.004;2023-12-29T14:11:44;1.50;;;1.23;;
9729;SDS011;4904;49.152;11.004;2023-12-29T14:14:12;1.20;;;1.17;;
9729;SDS011;4904;49.152;11.004;2023-12-29T14:16:39;1.40;;;1.30;;
9729;SDS011;4904;49.152;11.004;2023-12-29T14:19:06;1.20;;;1.10;;
9729;SDS011;4904;49.152;11.004;2023-12-29T14:21:33;1.55;;;1.35;;
9729;SDS011;4904;49.152;11.004;2023-12-29T14:24:09;1.60;;;1.50;;
9729;SDS011;4904;49.152;11.004;2023-12-29T14:26:37;1.40;;;1.30;;
9729;SDS011;4904;49.152;11.004;2023-12-29T14:29:08;2.40;;;1.80;;
9729;SDS011;4904;49.152;11.004;2023-12-29T14:31:36;2.25;;;2.00;;
9729;SDS011;4904;49.152;11.004;2023-12-29T14:34:04;3.25;;;2.42;;
9729;SDS011;4904;49.152;11.004;2023-12-29T14:36:31;4.55;;;3.33;;
9729;SDS011;4904;49.152;11.004;2023-12-29T14:38:59;4.38;;;3.33;;
9729;SDS011;4904;49.152;11.004;2023-12-29T14:41:25;3.85;;;3.15;;
9729;SDS011;4904;49.152;11.004;2023-12-29T14:43:52;3.90;;;3.40;;
9729;SDS011;4904;49.152;11.004;2023-12-29T14:46:21;3.35;;;2.90;;
9729;SDS011;4904;49.152;11.004;2023-12-29T14:48:49;2.67;;;2.47;;
9729;SDS011;4904;49.152;11.004;2023-12-29T14:51:16;3.50;;;2.83;;
9729;SDS011;4904;49.152;11.004;2023-12-29T14:53:43;3.13;;;2.85;;
9729;SDS011;4904;49.152;11.004;2023-12-29T14:56:13;2.78;;;2.58;;
9729;SDS011;4904;49.152;11.004;2023-12-29T14:58:40;3.17;;;2.63;;
9729;SDS011;4904;49.152;11.004;2023-12-29T15:01:07;2.95;;;2.72;;
9729;SDS011;4904;49.152;11.004;2023-12-29T15:03:36;2.60;;;2.40;;
9729;SDS011;4904;49.152;11.004;2023-12-29T15:06:04;3.90;;;2.65;;
9729;SDS011;4904;49.152;11.004;2023-12-29T15:08:31;3.17;;;2.72;;